Time;durP1;ratioP1;P1;durP2;ratioP2;P2;SDS_P1;SDS_P2;PMS_P1;PMS_P2;Temp;Humidity;BMP_temperature;BMP_pressure;BME280_temperature;BME280_humidity;BME280_pressure;Samples;Min_cycle;Max_cycle;Signal;HPM_P1;HPM_P2
2023/10/04 00:01:44;;;;;;;0.52;0.30;;;14.00;1.00;;;;;;5137398;27;20419;-55
2023/10/04 00:04:12;;;;;;;1.10;0.30;;;13.90;1.00;;;;;;5137916;27;20934;-54
2023/10/04 00:06:41;;;;;;;0.70;0.30;;;14.00;1.00;;;;;;5137399;27;20633;-54
2023/10/04 00:09:10;;;;;;;0.50;0.30;;;13.90;1.00;;;;;;5137852;27;20517;-56
2023/10/04 00:11:37;;;;;;;0.98;0.30;;;13.80;1.00;;;;;;5137659;27;20439;-54
2023/10/04 00:14:06;;;;;;;0.80;0.40;;;13.70;5.60;;;;;;5138222;27;20484;-55
2023/10/04 00:16:34;;;;;;;0.98;0.30;;;13.70;6.40;;;;;;5137413;27;20435;-54
2023/10/04 00:19:02;;;;;;;0.70;0.30;;;13.60;1.70;;;;;;5129275;27;20487;-55
2023/10/04 00:21:29;;;;;;;1.20;0.30;;;13.60;7.10;;;;;;5137563;27;20450;-54
2023/10/04 00:23:58;;;;;;;2.00;0.40;;;13.50;15.50;;;;;;5136934;27;20432;-55
2023/10/04 00:26:27;;;;;;;0.70;0.30;;;13.50;18.30;;;;;;5137642;27;20407;-51
2023/10/04 00:28:54;;;;;;;1.35;0.30;;;13.60;17.70;;;;;;5137854;27;20464;-56
2023/10/04 00:31:21;;;;;;;0.70;0.33;;;13.80;10.40;;;;;;5137480;27;20450;-56
2023/10/04 00:33:49;;;;;;;1.50;0.30;;;13.70;1.00;;;;;;5128596;27;20506;-56
2023/10/04 00:36:21;;;;;;;0.77;0.30;;;13.60;1.00;;;;;;5137320;27;20437;-52
2023/10/04 00:38:48;;;;;;;0.70;0.30;;;13.70;1.00;;;;;;5137376;27;20508;-56
2023/10/04 00:41:15;;;;;;;1.05;0.30;;;13.60;1.00;;;;;;5137451;27;20446;-55
2023/10/04 00:43:51;;;;;;;0.70;0.30;;;13.60;1.00;;;;;;5137631;27;20441;-54
2023/10/04 00:46:20;;;;;;;0.80;0.40;;;13.50;4.10;;;;;;5137491;27;20706;-52
2023/10/04 00:48:49;;;;;;;1.30;0.30;;;13.40;8.70;;;;;;5127820;27;20451;-55
2023/10/04 00:51:18;;;;;;;0.70;0.30;;;13.30;17.90;;;;;;5136245;27;20418;-56
2023/10/04 00:53:47;;;;;;;0.50;0.30;;;13.20;26.10;;;;;;5136846;27;20501;-54
2023/10/04 00:56:16;;;;;;;1.30;0.30;;;13.20;31.80;;;;;;5136763;27;20413;-54
2023/10/04 00:58:45;;;;;;;1.00;0.30;;;13.20;33.60;;;;;;5136267;27;20614;-55
2023/10/04 01:01:15;;;;;;;1.45;0.30;;;13.20;42.00;;;;;;5136577;27;20457;-56
2023/10/04 01:03:43;;;;;;;0.60;0.30;;;13.20;34.60;;;;;;5128437;27;20847;-54
2023/10/04 01:06:11;;;;;;;0.73;0.30;;;13.20;41.10;;;;;;5137166;27;20495;-56
2023/10/04 01:08:39;;;;;;;1.00;0.40;;;13.20;41.00;;;;;;5135545;27;20422;-53
2023/10/04 01:11:07;;;;;;;0.90;0.30;;;13.30;34.50;;;;;;5135190;27;20414;-56
2023/10/04 01:13:34;;;;;;;1.60;0.30;;;13.50;29.40;;;;;;5134904;27;20468;-55
2023/10/04 01:16:02;;;;;;;0.82;0.40;;;13.70;17.70;;;;;;5135237;27;20423;-54
2023/10/04 01:18:30;;;;;;;0.50;0.20;;;14.00;1.00;;;;;;5134309;27;20496;-56
2023/10/04 01:20:59;;;;;;;0.98;0.30;;;14.10;1.00;;;;;;5135385;27;20406;-54
2023/10/04 01:23:28;;;;;;;0.70;0.30;;;14.10;1.00;;;;;;5135256;27;20423;-54
2023/10/04 01:25:55;;;;;;;0.70;0.30;;;14.00;1.00;;;;;;5135547;27;20422;-54
2023/10/04 01:28:28;;;;;;;0.50;0.20;;;14.00;1.00;;;;;;5134054;27;20445;-55
2023/10/04 01:30:56;;;;;;;1.40;0.40;;;13.90;1.00;;;;;;5134609;27;20791;-56
2023/10/04 01:33:23;;;;;;;0.65;0.30;;;13.90;1.00;;;;;;5128941;27;20435;-55
2023/10/04 01:35:53;;;;;;;1.00;0.25;;;13.70;1.00;;;;;;5133430;27;20774;-54
2023/10/04 01:38:24;;;;;;;0.80;0.40;;;13.70;1.00;;;;;;5135523;27;20434;-54
2023/10/04 01:40:53;;;;;;;0.60;0.30;;;13.70;1.00;;;;;;5136045;27;20919;-52
2023/10/04 01:43:20;;;;;;;0.60;0.30;;;13.70;1.00;;;;;;5136057;27;20513;-53
2023/10/04 01:45:50;;;;;;;0.70;0.30;;;13.70;1.00;;;;;;5136190;27;20414;-54
2023/10/04 01:48:17;;;;;;;0.77;0.30;;;13.80;1.00;;;;;;5131330;27;20715;-50
2023/10/04 01:50:48;;;;;;;0.70;0.30;;;13.80;1.00;;;;;;5132475;27;20420;-54
2023/10/04 01:53:15;;;;;;;0.67;0.40;;;13.80;1.00;;;;;;5135943;27;20421;-52
2023/10/04 01:55:43;;;;;;;0.70;0.40;;;13.80;1.00;;;;;;5136542;27;20513;-54
2023/10/04 01:58:13;;;;;;;1.10;0.40;;;13.70;1.00;;;;;;5136143;27;20430;-54
2023/10/04 02:00:40;;;;;;;0.57;0.20;;;13.70;1.00;;;;;;5136206;28;20434;-54
2023/10/04 02:03:10;;;;;;;1.20;0.30;;;13.80;1.00;;;;;;5131815;28;20425;-53
2023/10/04 02:05:40;;;;;;;0.70;0.35;;;13.80;1.00;;;;;;5131926;28;20424;-54
2023/10/04 02:08:08;;;;;;;1.00;0.30;;;13.80;1.00;;;;;;5136282;28;20709;-53
2023/10/04 02:10:36;;;;;;;1.02;0.40;;;13.90;1.00;;;;;;5136030;28;20422;-51
2023/10/04 02:13:06;;;;;;;0.60;0.22;;;14.00;1.00;;;;;;5135929;28;20429;-55
2023/10/04 02:15:37;;;;;;;1.60;0.35;;;14.00;1.00;;;;;;5136095;28;20422;-54
2023/10/04 02:18:05;;;;;;;0.70;0.30;;;14.10;1.00;;;;;;5135782;28;20457;-56
2023/10/04 02:20:34;;;;;;;1.30;0.30;;;14.10;1.00;;;;;;5136439;28;20757;-53
2023/10/04 02:23:03;;;;;;;0.80;0.30;;;14.20;1.00;;;;;;5135638;28;20426;-56
2023/10/04 02:25:30;;;;;;;0.60;0.30;;;14.20;1.00;;;;;;5134958;28;20428;-55
2023/10/04 02:28:01;;;;;;;0.70;0.30;;;14.20;1.00;;;;;;5135459;28;20432;-55
2023/10/04 02:30:29;;;;;;;0.80;0.30;;;14.40;1.00;;;;;;5139324;27;20852;-55
2023/10/04 02:32:58;;;;;;;0.80;0.30;;;14.40;1.00;;;;;;5137192;27;20741;-56
2023/10/04 02:35:27;;;;;;;0.90;0.30;;;14.40;1.00;;;;;;5119112;28;20412;-56
2023/10/04 02:37:59;;;;;;;0.50;0.30;;;14.40;1.00;;;;;;5119209;28;20439;-54
2023/10/04 02:40:32;;;;;;;1.73;0.40;;;14.50;1.00;;;;;;5134643;27;20422;-55
2023/10/04 02:43:00;;;;;;;1.30;0.32;;;14.50;1.00;;;;;;5139684;27;20486;-56
2023/10/04 02:45:29;;;;;;;0.75;0.30;;;14.40;1.00;;;;;;5139825;27;20422;-56
2023/10/04 02:47:58;;;;;;;0.85;0.30;;;14.30;1.00;;;;;;5137243;27;20450;-55
2023/10/04 02:50:25;;;;;;;1.00;0.30;;;14.30;1.00;;;;;;5134095;27;20417;-56
2023/10/04 02:52:52;;;;;;;0.50;0.30;;;14.20;1.00;;;;;;5139104;27;20418;-56
2023/10/04 02:55:20;;;;;;;0.80;0.30;;;14.20;1.00;;;;;;5138828;27;20471;-56
2023/10/04 02:57:50;;;;;;;0.80;0.30;;;14.20;1.00;;;;;;5139287;27;20521;-56
2023/10/04 03:00:19;;;;;;;0.70;0.30;;;14.10;1.00;;;;;;5139033;27;20429;-56
2023/10/04 03:02:48;;;;;;;0.60;0.30;;;14.20;1.00;;;;;;5137308;27;20446;-55
2023/10/04 03:05:19;;;;;;;0.80;0.40;;;14.20;1.00;;;;;;5131980;27;20459;-52
2023/10/04 03:07:50;;;;;;;0.60;0.30;;;14.20;1.00;;;;;;5138999;27;20747;-56
2023/10/04 03:10:24;;;;;;;0.75;0.30;;;14.20;1.00;;;;;;5138765;27;20419;-55
2023/10/04 03:12:52;;;;;;;1.50;0.30;;;14.30;1.00;;;;;;5138009;27;20479;-55
2023/10/04 03:15:22;;;;;;;0.60;0.30;;;14.30;1.00;;;;;;5137621;27;20729;-56
2023/10/04 03:17:50;;;;;;;0.95;0.30;;;14.20;1.00;;;;;;5137919;27;20434;-56
2023/10/04 03:20:21;;;;;;;0.80;0.40;;;14.20;1.00;;;;;;5137620;27;20533;-55
2023/10/04 03:22:49;;;;;;;0.70;0.30;;;14.10;1.00;;;;;;5138096;27;20441;-56
2023/10/04 03:25:17;;;;;;;0.60;0.30;;;14.00;1.00;;;;;;5138540;27;20726;-50
2023/10/04 03:27:46;;;;;;;0.75;0.40;;;13.90;1.00;;;;;;5138567;27;20531;-55
2023/10/04 03:30:17;;;;;;;0.70;0.40;;;13.90;1.00;;;;;;5138638;27;20475;-54
2023/10/04 03:32:49;;;;;;;0.70;0.30;;;13.90;1.00;;;;;;5137380;27;20826;-55
2023/10/04 03:35:21;;;;;;;1.90;0.40;;;13.90;1.00;;;;;;5124789;27;20433;-56
2023/10/04 03:37:54;;;;;;;0.70;0.30;;;13.90;1.00;;;;;;5138631;27;20431;-55
2023/10/04 03:40:22;;;;;;;0.55;0.30;;;13.80;1.00;;;;;;5137569;27;20423;-53
2023/10/04 03:42:50;;;;;;;1.10;0.40;;;13.80;1.00;;;;;;5137394;27;20419;-56
2023/10/04 03:45:18;;;;;;;1.10;0.30;;;13.90;1.00;;;;;;5137131;27;20510;-55
2023/10/04 03:47:50;;;;;;;0.90;0.40;;;14.00;1.00;;;;;;5136749;27;20814;-54
2023/10/04 03:50:19;;;;;;;0.80;0.40;;;14.00;1.00;;;;;;5124672;27;20407;-53
2023/10/04 03:52:47;;;;;;;0.70;0.40;;;14.00;1.00;;;;;;5138182;27;20422;-55
2023/10/04 03:55:15;;;;;;;0.63;0.30;;;14.00;1.00;;;;;;5138299;27;20687;-54
2023/10/04 03:57:43;;;;;;;1.05;0.30;;;14.10;1.00;;;;;;5137778;27;20437;-56
2023/10/04 04:00:16;;;;;;;1.20;0.40;;;14.20;1.00;;;;;;5137053;27;20423;-54
2023/10/04 04:02:44;;;;;;;0.60;0.30;;;14.10;1.00;;;;;;5135645;27;20861;-56
2023/10/04 04:05:14;;;;;;;0.73;0.40;;;14.20;1.00;;;;;;5122880;27;20433;-56
2023/10/04 04:07:43;;;;;;;1.30;0.40;;;14.10;1.00;;;;;;5137152;27;20857;-52
2023/10/04 04:10:14;;;;;;;1.02;0.40;;;14.00;1.00;;;;;;5137468;27;20461;-55
2023/10/04 04:12:42;;;;;;;1.10;0.40;;;14.00;1.00;;;;;;5137572;27;20725;-55
2023/10/04 04:15:12;;;;;;;1.10;0.40;;;14.00;1.00;;;;;;5137726;27;20446;-56
2023/10/04 04:17:40;;;;;;;0.57;0.30;;;14.00;1.00;;;;;;5137272;27;20458;-55
2023/10/04 04:20:14;;;;;;;1.00;0.38;;;14.00;1.00;;;;;;5137119;27;20417;-55
2023/10/04 04:22:46;;;;;;;1.00;0.40;;;13.90;1.00;;;;;;5136491;27;20714;-54
2023/10/04 04:25:15;;;;;;;0.85;0.40;;;14.00;1.00;;;;;;5136815;27;20423;-54
2023/10/04 04:27:46;;;;;;;1.63;0.40;;;14.00;1.00;;;;;;5137308;27;20421;-55
2023/10/04 04:30:19;;;;;;;0.77;0.37;;;14.10;1.00;;;;;;5137916;27;20487;-51
2023/10/04 04:32:49;;;;;;;1.23;0.40;;;13.90;1.00;;;;;;5135456;27;20419;-55
2023/10/04 04:35:35;;;;;;;0.70;0.35;;;14.00;1.00;;;;;;5123185;27;20725;-57
2023/10/04 04:38:13;;;;;;;1.10;0.30;;;13.90;1.00;;;;;;5136165;27;20722;-56
2023/10/04 04:40:44;;;;;;;0.60;0.30;;;14.00;1.00;;;;;;5135347;27;20798;-57
2023/10/04 04:43:26;;;;;;;1.50;0.40;;;13.80;1.00;;;;;;5136631;27;20429;-51
2023/10/04 04:45:56;;;;;;;1.90;0.40;;;13.70;1.00;;;;;;5133654;27;20738;-52
2023/10/04 04:48:25;;;;;;;0.90;0.40;;;13.50;1.00;;;;;;5133182;27;20411;-54
2023/10/04 04:50:53;;;;;;;1.10;0.40;;;13.50;1.00;;;;;;5131961;27;20501;-53
2023/10/04 04:53:22;;;;;;;0.90;0.30;;;13.60;1.00;;;;;;5133020;27;20425;-50
2023/10/04 04:55:50;;;;;;;0.82;0.40;;;13.60;1.00;;;;;;5133546;27;20432;-51
2023/10/04 04:58:20;;;;;;;0.90;0.40;;;13.60;1.00;;;;;;5133870;27;20917;-52
2023/10/04 05:00:50;;;;;;;1.35;0.30;;;13.60;1.00;;;;;;5133650;27;20426;-49
2023/10/04 05:03:18;;;;;;;0.80;0.30;;;13.40;1.00;;;;;;5134968;27;20465;-49
2023/10/04 05:05:49;;;;;;;1.20;0.30;;;13.30;1.00;;;;;;5135524;27;20411;-53
2023/10/04 05:08:17;;;;;;;2.45;0.30;;;13.30;1.00;;;;;;5134881;27;20456;-53
2023/10/04 05:10:49;;;;;;;0.82;0.40;;;13.40;1.00;;;;;;5136083;27;20407;-50
2023/10/04 05:13:18;;;;;;;0.80;0.30;;;13.80;1.00;;;;;;5135015;27;20509;-53
2023/10/04 05:15:45;;;;;;;0.82;0.30;;;13.80;1.00;;;;;;5131161;27;21063;-54
2023/10/04 05:18:16;;;;;;;0.70;0.30;;;13.80;1.00;;;;;;5121414;27;20753;-49
2023/10/04 05:20:43;;;;;;;0.80;0.40;;;13.80;1.00;;;;;;5126153;27;20776;-53
2023/10/04 05:23:11;;;;;;;0.73;0.40;;;13.60;1.00;;;;;;5132230;27;20860;-55
2023/10/04 05:25:38;;;;;;;2.00;0.38;;;13.70;1.00;;;;;;5132391;27;20509;-53
2023/10/04 05:28:11;;;;;;;1.10;0.40;;;13.60;1.00;;;;;;5134102;27;20826;-54
2023/10/04 05:30:39;;;;;;;0.90;0.40;;;13.70;1.00;;;;;;5134342;27;20834;-52
2023/10/04 05:33:07;;;;;;;0.90;0.40;;;13.70;1.00;;;;;;5124148;27;20837;-52
2023/10/04 05:35:35;;;;;;;1.10;0.40;;;13.60;1.00;;;;;;5123315;27;20713;-51
2023/10/04 05:38:04;;;;;;;1.20;0.60;;;13.70;1.00;;;;;;5132864;27;20422;-52
2023/10/04 05:40:33;;;;;;;1.30;0.40;;;13.60;1.00;;;;;;5133389;27;20753;-50
2023/10/04 05:43:01;;;;;;;0.80;0.47;;;13.30;1.00;;;;;;5132761;27;20414;-54
2023/10/04 05:45:30;;;;;;;1.00;0.40;;;13.20;1.00;;;;;;5131253;27;20418;-49
2023/10/04 05:47:57;;;;;;;1.02;0.50;;;13.20;1.00;;;;;;5132587;27;20433;-53
2023/10/04 05:50:24;;;;;;;0.80;0.50;;;13.10;1.00;;;;;;5131394;27;20445;-52
2023/10/04 05:52:57;;;;;;;1.20;0.40;;;13.10;1.00;;;;;;5127742;27;20418;-51
2023/10/04 05:55:24;;;;;;;0.95;0.50;;;12.90;1.00;;;;;;5129289;27;20429;-54
2023/10/04 05:57:52;;;;;;;2.10;0.40;;;12.80;1.00;;;;;;5126890;27;20931;-53
2023/10/04 06:00:24;;;;;;;0.90;0.40;;;12.70;1.00;;;;;;5132888;27;20721;-51
2023/10/04 06:02:55;;;;;;;1.50;0.40;;;12.50;1.00;;;;;;5132740;27;20503;-54
2023/10/04 06:05:23;;;;;;;0.90;0.40;;;12.40;1.00;;;;;;5133244;27;20457;-56
2023/10/04 06:07:52;;;;;;;0.80;0.40;;;12.30;1.00;;;;;;5131857;28;20505;-54
2023/10/04 06:10:19;;;;;;;1.00;0.40;;;12.30;1.00;;;;;;5132354;28;20765;-50
2023/10/04 06:12:47;;;;;;;1.10;0.50;;;12.30;1.00;;;;;;5132927;28;20744;-50
2023/10/04 06:15:16;;;;;;;2.00;0.50;;;12.40;1.00;;;;;;5132237;28;20415;-49
2023/10/04 06:17:45;;;;;;;1.30;0.50;;;12.50;1.00;;;;;;5131081;27;20718;-48
2023/10/04 06:20:28;;;;;;;1.52;0.50;;;12.70;1.00;;;;;;5130826;28;20576;-52
2023/10/04 06:22:59;;;;;;;1.70;0.65;;;12.80;1.00;;;;;;5129259;27;20856;-50
2023/10/04 06:25:28;;;;;;;2.00;0.50;;;12.80;1.00;;;;;;5129887;27;20441;-52
2023/10/04 06:27:57;;;;;;;3.60;0.50;;;12.70;1.00;;;;;;5130296;27;20430;-52
2023/10/04 06:30:27;;;;;;;1.30;0.60;;;12.80;1.00;;;;;;5132561;27;20466;-52
2023/10/04 06:32:56;;;;;;;1.30;0.50;;;12.80;1.00;;;;;;5128776;28;20426;-52
2023/10/04 06:35:25;;;;;;;1.40;0.40;;;12.80;1.00;;;;;;5131790;28;20717;-53
2023/10/04 06:37:53;;;;;;;0.97;0.43;;;12.90;1.00;;;;;;5128807;28;20812;-51
2023/10/04 06:40:21;;;;;;;1.10;0.40;;;13.00;1.00;;;;;;5127418;27;20430;-51
2023/10/04 06:42:51;;;;;;;0.70;0.40;;;13.00;1.00;;;;;;5128832;27;20762;-52
2023/10/04 06:45:18;;;;;;;0.95;0.40;;;13.30;1.00;;;;;;5128403;27;20544;-51
2023/10/04 06:47:47;;;;;;;2.30;0.50;;;13.40;1.00;;;;;;5131140;28;20739;-51
2023/10/04 06:50:16;;;;;;;0.80;0.40;;;13.50;1.00;;;;;;5130731;28;20528;-55
2023/10/04 06:52:47;;;;;;;0.90;0.40;;;13.60;1.00;;;;;;5125810;28;20744;-54
2023/10/04 06:55:15;;;;;;;2.10;0.30;;;13.90;1.00;;;;;;5131083;28;20533;-49
2023/10/04 06:57:43;;;;;;;0.70;0.30;;;14.00;1.00;;;;;;5129917;28;20426;-51
2023/10/04 07:00:15;;;;;;;1.10;0.40;;;14.20;1.00;;;;;;5124924;28;20435;-54
2023/10/04 07:02:47;;;;;;;2.50;0.32;;;14.20;99.90;;;;;;5129922;28;20446;-53
2023/10/04 07:05:16;;;;;;;2.88;0.40;;;14.60;99.90;;;;;;5130213;28;20576;-53
2023/10/04 07:07:46;;;;;;;0.60;0.30;;;14.90;1.00;;;;;;5139000;27;20435;-52
2023/10/04 07:10:15;;;;;;;1.10;0.30;;;15.00;99.90;;;;;;5130409;28;20418;-50
2023/10/04 07:12:45;;;;;;;0.57;0.20;;;14.80;53.70;;;;;;5130124;28;20525;-49
2023/10/04 07:15:13;;;;;;;2.08;0.30;;;15.00;1.00;;;;;;5128384;27;20446;-53
2023/10/04 07:17:41;;;;;;;0.50;0.20;;;14.90;22.60;;;;;;5129345;27;20461;-53
2023/10/04 07:20:14;;;;;;;0.55;0.30;;;15.00;1.00;;;;;;5132813;27;20423;-51
2023/10/04 07:22:45;;;;;;;0.80;0.28;;;15.00;41.20;;;;;;5131723;27;20430;-50
2023/10/04 07:25:13;;;;;;;1.45;0.30;;;15.10;99.90;;;;;;5129763;27;20469;-50
2023/10/04 07:27:42;;;;;;;1.60;0.30;;;15.20;1.00;;;;;;5125824;27;20516;-49
2023/10/04 07:30:12;;;;;;;1.08;0.32;;;15.20;1.00;;;;;;5133162;27;20866;-53
2023/10/04 07:32:41;;;;;;;0.60;0.40;;;15.20;99.90;;;;;;5136069;27;20858;-54
2023/10/04 07:35:11;;;;;;;1.15;0.30;;;15.20;1.00;;;;;;5134619;27;20479;-52
2023/10/04 07:37:39;;;;;;;1.50;0.30;;;15.20;1.00;;;;;;5131811;27;20439;-52
2023/10/04 07:40:10;;;;;;;0.50;0.20;;;15.30;1.00;;;;;;5134972;27;20545;-51
2023/10/04 07:42:38;;;;;;;5.57;1.15;;;15.00;99.90;;;;;;5134906;27;20524;-50
2023/10/04 07:45:07;;;;;;;16.38;3.30;;;15.30;99.90;;;;;;5133857;27;20430;-52
2023/10/04 07:47:36;;;;;;;2.80;0.40;;;15.50;99.90;;;;;;5130256;27;20426;-47
2023/10/04 07:50:05;;;;;;;0.80;0.20;;;15.40;17.50;;;;;;5133360;27;20426;-53
2023/10/04 07:52:32;;;;;;;0.70;0.28;;;15.30;99.90;;;;;;5129653;27;20458;-49
2023/10/04 07:55:00;;;;;;;2.80;0.30;;;15.20;99.90;;;;;;5131728;27;20426;-52
2023/10/04 07:57:28;;;;;;;1.00;0.40;;;15.30;99.90;;;;;;5132259;27;20873;-50
2023/10/04 07:59:56;;;;;;;0.70;0.20;;;15.30;1.00;;;;;;5129861;27;20881;-52
2023/10/04 08:02:23;;;;;;;1.20;0.20;;;15.30;99.90;;;;;;5132024;27;20430;-49
2023/10/04 08:04:50;;;;;;;0.50;0.30;;;15.20;99.90;;;;;;5134981;27;20537;-51
2023/10/04 08:07:18;;;;;;;0.77;0.30;;;15.30;1.00;;;;;;5133471;27;20418;-51
2023/10/04 08:09:47;;;;;;;0.60;0.28;;;15.30;99.90;;;;;;5133687;27;20461;-51
2023/10/04 08:12:15;;;;;;;0.70;0.30;;;15.30;99.90;;;;;;5133502;27;20612;-51
2023/10/04 08:14:44;;;;;;;1.10;0.30;;;15.40;99.90;;;;;;5131863;27;20453;-52
2023/10/04 08:17:12;;;;;;;1.05;0.30;;;15.50;1.00;;;;;;5133944;27;20491;-49
2023/10/04 08:19:39;;;;;;;2.60;0.30;;;15.60;1.00;;;;;;5129437;27;20729;-51
2023/10/04 08:22:09;;;;;;;1.10;0.30;;;15.80;99.90;;;;;;5124496;27;20549;-49
2023/10/04 08:24:37;;;;;;;1.30;0.20;;;15.80;99.90;;;;;;5134160;27;20462;-52
2023/10/04 08:27:04;;;;;;;1.40;0.30;;;15.90;99.90;;;;;;5132128;27;20462;-50
2023/10/04 08:29:34;;;;;;;0.90;0.30;;;16.10;1.00;;;;;;5133416;27;20766;-52
2023/10/04 08:32:03;;;;;;;0.63;0.30;;;16.00;51.70;;;;;;5135349;27;20813;-51
2023/10/04 08:34:30;;;;;;;0.60;0.30;;;16.20;1.00;;;;;;5136101;27;20467;-53
2023/10/04 08:36:58;;;;;;;0.50;0.20;;;16.20;1.00;;;;;;5134285;27;20430;-51
2023/10/04 08:39:26;;;;;;;1.20;0.30;;;16.20;1.00;;;;;;5134168;27;20430;-50
2023/10/04 08:42:59;;;;;;;0.60;0.25;;;16.30;1.00;;;;;;5148200;27;20843;-54
2023/10/04 08:45:29;;;;;;;1.70;0.30;;;16.40;1.00;;;;;;5149411;27;20429;-52
2023/10/04 08:47:57;;;;;;;0.80;0.20;;;16.50;1.00;;;;;;5149716;27;20436;-53
2023/10/04 08:50:32;;;;;;;0.73;0.20;;;16.50;1.00;;;;;;5149518;27;20797;-51
2023/10/04 08:53:04;;;;;;;0.82;0.20;;;16.50;1.00;;;;;;5148019;27;20521;-51
2023/10/04 08:55:39;;;;;;;1.00;0.20;;;16.60;99.90;;;;;;5149170;27;20430;-52
2023/10/04 08:58:10;;;;;;;0.70;0.20;;;16.70;99.90;;;;;;5150014;27;20487;-50
2023/10/04 09:00:43;;;;;;;0.60;0.22;;;16.50;99.90;;;;;;5150343;27;20418;-53
2023/10/04 09:03:13;;;;;;;0.68;0.20;;;16.50;99.90;;;;;;5147215;27;20482;-54
2023/10/04 09:05:46;;;;;;;0.80;0.30;;;16.50;99.90;;;;;;5148568;27;20440;-52
2023/10/04 09:08:14;;;;;;;1.30;0.30;;;16.60;99.90;;;;;;5149463;27;20880;-53
2023/10/04 09:10:42;;;;;;;0.60;0.30;;;16.70;99.90;;;;;;5148772;27;20401;-56
2023/10/04 09:13:12;;;;;;;0.90;0.30;;;16.70;99.90;;;;;;5148728;27;20489;-54
2023/10/04 09:15:39;;;;;;;0.90;0.20;;;16.70;99.90;;;;;;5147974;27;20428;-57
2023/10/04 09:18:07;;;;;;;1.05;0.30;;;16.70;99.90;;;;;;5149466;27;20794;-58
2023/10/04 09:20:35;;;;;;;1.10;0.30;;;16.70;99.90;;;;;;5146894;27;20549;-58
2023/10/04 09:23:15;;;;;;;3.10;0.30;;;16.80;99.90;;;;;;5144679;27;20426;-54
2023/10/04 09:25:46;;;;;;;0.70;0.30;;;16.90;99.90;;;;;;5147713;27;20486;-57
2023/10/04 09:28:15;;;;;;;0.50;0.20;;;16.90;99.90;;;;;;5149219;27;20416;-58
2023/10/04 09:30:42;;;;;;;1.80;0.30;;;17.00;99.90;;;;;;5147068;27;20413;-56
2023/10/04 09:33:23;;;;;;;0.70;0.30;;;17.00;99.90;;;;;;5149415;27;20516;-56
2023/10/04 09:35:51;;;;;;;0.70;0.20;;;17.00;99.90;;;;;;5148053;27;20528;-57
2023/10/04 09:38:21;;;;;;;0.70;0.20;;;17.20;99.90;;;;;;5150357;27;20428;-56
2023/10/04 09:40:51;;;;;;;0.50;0.20;;;17.40;99.90;;;;;;5147100;27;20448;-57
2023/10/04 09:43:35;;;;;;;1.08;0.20;;;17.40;99.90;;;;;;5148177;27;20421;-55
2023/10/04 09:46:02;;;;;;;0.60;0.20;;;17.80;99.90;;;;;;5147054;27;20511;-57
2023/10/04 09:48:33;;;;;;;0.40;0.20;;;17.90;99.90;;;;;;5147186;27;20422;-56
2023/10/04 09:51:02;;;;;;;1.10;0.20;;;17.90;93.50;;;;;;5146633;27;20429;-56
2023/10/04 09:53:30;;;;;;;0.70;0.30;;;17.70;90.50;;;;;;5136944;27;20853;-56
2023/10/04 09:56:02;;;;;;;1.75;0.30;;;17.80;95.90;;;;;;5123790;27;20432;-54
2023/10/04 09:58:34;;;;;;;0.50;0.30;;;18.00;56.10;;;;;;5125617;27;20417;-56
2023/10/04 10:01:09;;;;;;;1.00;0.20;;;18.10;25.50;;;;;;5134777;27;20440;-56
2023/10/04 10:03:42;;;;;;;1.10;0.30;;;18.20;18.00;;;;;;5131339;27;20514;-54
2023/10/04 10:06:12;;;;;;;0.57;0.20;;;18.30;1.00;;;;;;5127552;27;20740;-54
2023/10/04 10:08:47;;;;;;;0.70;0.30;;;18.50;1.00;;;;;;5133806;27;20414;-53
2023/10/04 10:11:14;;;;;;;0.70;0.20;;;18.70;1.00;;;;;;5130781;27;20649;-55
2023/10/04 10:13:44;;;;;;;2.00;0.20;;;18.90;1.00;;;;;;5130366;27;20867;-56
2023/10/04 10:16:11;;;;;;;0.50;0.20;;;18.70;1.00;;;;;;5112515;28;20719;-55
2023/10/04 10:18:39;;;;;;;0.98;0.30;;;18.80;1.00;;;;;;5117074;27;20485;-53
2023/10/04 10:21:08;;;;;;;1.00;0.22;;;18.90;1.00;;;;;;5131980;27;21012;-54
2023/10/04 10:23:56;;;;;;;0.60;0.20;;;18.80;1.00;;;;;;5130328;27;20422;-57
2023/10/04 10:26:23;;;;;;;0.50;0.28;;;18.80;1.00;;;;;;5139676;27;20436;-54
2023/10/04 10:29:03;;;;;;;6.80;0.60;;;18.70;1.00;;;;;;5131497;27;20800;-55
2023/10/04 10:31:31;;;;;;;1.70;0.30;;;18.60;1.00;;;;;;5130886;27;20697;-56
2023/10/04 10:33:58;;;;;;;0.52;0.20;;;18.60;1.00;;;;;;5130143;27;20680;-57
2023/10/04 10:36:27;;;;;;;0.68;0.20;;;18.30;1.00;;;;;;5130575;27;20518;-57
2023/10/04 10:38:55;;;;;;;1.00;0.30;;;18.20;1.00;;;;;;5127265;27;20557;-57
2023/10/04 10:42:03;;;;;;;0.63;0.30;;;18.30;1.00;;;;;;5126077;27;20433;-57
2023/10/04 10:44:39;;;;;;;0.80;0.20;;;18.50;1.00;;;;;;5128113;27;20434;-57
2023/10/04 10:47:14;;;;;;;1.20;0.30;;;18.50;1.00;;;;;;5130586;27;20457;-57
2023/10/04 10:49:58;;;;;;;0.60;0.30;;;18.50;1.00;;;;;;5126811;27;20438;-56
2023/10/04 10:52:34;;;;;;;0.70;0.30;;;18.30;1.00;;;;;;5132515;27;20522;-56
2023/10/04 10:55:05;;;;;;;0.60;0.30;;;18.40;1.00;;;;;;5128027;27;20437;-57
2023/10/04 10:57:33;;;;;;;0.60;0.20;;;18.50;1.00;;;;;;5133869;27;20833;-56
2023/10/04 11:00:11;;;;;;;1.10;0.30;;;18.70;1.00;;;;;;5132348;27;20713;-54
2023/10/04 11:02:38;;;;;;;0.90;0.30;;;19.10;1.00;;;;;;5121895;27;20898;-55
2023/10/04 11:05:07;;;;;;;1.60;0.30;;;19.40;1.00;;;;;;5104272;27;20530;-55
2023/10/04 11:07:37;;;;;;;0.63;0.30;;;19.40;1.00;;;;;;5105787;27;20446;-54
2023/10/04 11:10:08;;;;;;;0.60;0.30;;;19.50;1.00;;;;;;5114227;28;20451;-57
2023/10/04 11:12:37;;;;;;;0.52;0.30;;;19.40;1.00;;;;;;5108124;27;20465;-67
2023/10/04 11:15:08;;;;;;;0.98;0.20;;;19.50;1.00;;;;;;5110683;27;20927;-62
2023/10/04 11:17:36;;;;;;;1.00;0.30;;;19.10;1.00;;;;;;5108307;27;20536;-58
2023/10/04 11:20:09;;;;;;;0.60;0.30;;;18.90;1.00;;;;;;5096381;27;20901;-58
2023/10/04 11:22:38;;;;;;;0.80;0.40;;;18.70;1.00;;;;;;5104779;28;20430;-58
2023/10/04 11:25:07;;;;;;;0.80;0.30;;;19.20;1.00;;;;;;5111762;28;20423;-58
2023/10/04 11:27:35;;;;;;;1.00;0.30;;;19.80;1.00;;;;;;5110325;28;20860;-58
2023/10/04 11:30:03;;;;;;;0.50;0.20;;;20.20;1.00;;;;;;5118135;27;20434;-58
2023/10/04 11:32:32;;;;;;;1.00;0.30;;;20.50;1.00;;;;;;5132888;27;20699;-58
2023/10/04 11:35:07;;;;;;;1.02;0.20;;;20.80;1.00;;;;;;5125958;27;20810;-58
2023/10/04 11:37:39;;;;;;;0.80;0.30;;;20.90;1.00;;;;;;5107768;27;20451;-58
2023/10/04 11:40:11;;;;;;;0.90;0.30;;;20.90;1.00;;;;;;5115659;27;20430;-58
2023/10/04 11:42:39;;;;;;;1.30;0.20;;;20.70;1.00;;;;;;5126145;27;20434;-60
2023/10/04 11:45:20;;;;;;;1.15;0.30;;;20.30;1.00;;;;;;5128670;27;20929;-57
2023/10/04 11:48:00;;;;;;;1.27;0.30;;;20.20;1.00;;;;;;5131244;27;20513;-59
2023/10/04 11:50:44;;;;;;;0.50;0.20;;;20.00;1.00;;;;;;5129887;27;20651;-60
2023/10/04 11:53:13;;;;;;;0.50;0.20;;;19.90;1.00;;;;;;5130393;27;20418;-59
2023/10/04 11:55:40;;;;;;;0.90;0.20;;;19.80;1.00;;;;;;5131679;27;20402;-59
2023/10/04 11:58:10;;;;;;;0.65;0.20;;;20.00;1.00;;;;;;5130978;27;20402;-59
2023/10/04 12:00:37;;;;;;;2.10;0.30;;;20.20;1.00;;;;;;5131748;27;20420;-59
2023/10/04 12:03:09;;;;;;;0.68;0.20;;;20.30;1.00;;;;;;5132378;27;20427;-58
2023/10/04 12:05:36;;;;;;;0.60;0.30;;;20.30;1.00;;;;;;5130939;27;20442;-59
2023/10/04 12:08:06;;;;;;;0.68;0.20;;;20.10;1.00;;;;;;5129057;27;21017;-59
2023/10/04 12:10:34;;;;;;;1.00;0.40;;;20.10;1.00;;;;;;5123484;27;20420;-59
2023/10/04 12:13:01;;;;;;;0.60;0.20;;;20.10;1.00;;;;;;5110489;28;20425;-59
2023/10/04 12:15:29;;;;;;;0.60;0.30;;;20.20;1.00;;;;;;5122537;27;20514;-59
2023/10/04 12:17:56;;;;;;;1.00;0.30;;;20.30;1.00;;;;;;5129203;27;20422;-59
2023/10/04 12:20:25;;;;;;;0.80;0.20;;;20.40;1.00;;;;;;5128313;27;20522;-59
2023/10/04 12:22:52;;;;;;;0.57;0.30;;;20.40;1.00;;;;;;5126423;27;20430;-60
2023/10/04 12:25:21;;;;;;;0.60;0.20;;;20.50;1.00;;;;;;5132510;27;20444;-60
2023/10/04 12:27:50;;;;;;;1.42;0.20;;;20.30;1.00;;;;;;5125870;27;20879;-59
2023/10/04 12:30:19;;;;;;;0.60;0.30;;;19.90;1.00;;;;;;5128969;27;20447;-60
2023/10/04 12:32:47;;;;;;;0.60;0.20;;;20.00;1.00;;;;;;5127089;27;20431;-60
2023/10/04 12:35:14;;;;;;;0.50;0.20;;;20.10;1.00;;;;;;5130442;27;20457;-60
2023/10/04 12:37:43;;;;;;;1.00;0.20;;;20.20;1.00;;;;;;5124181;27;20457;-60
2023/10/04 12:40:17;;;;;;;0.40;0.20;;;20.30;1.00;;;;;;5128636;28;20449;-60
2023/10/04 12:42:45;;;;;;;0.60;0.30;;;20.40;1.00;;;;;;5129398;28;20729;-60
2023/10/04 12:45:12;;;;;;;0.70;0.30;;;20.00;1.00;;;;;;5129874;28;20721;-60
2023/10/04 12:47:41;;;;;;;0.60;0.20;;;20.30;1.00;;;;;;5130880;28;20560;-60
2023/10/04 12:50:09;;;;;;;0.70;0.30;;;20.50;1.00;;;;;;5130938;28;20418;-60
2023/10/04 12:52:37;;;;;;;3.40;0.40;;;20.40;1.00;;;;;;5127300;28;20410;-60
2023/10/04 12:55:07;;;;;;;0.63;0.20;;;20.20;1.00;;;;;;5117606;28;20414;-60
2023/10/04 12:57:35;;;;;;;0.80;0.20;;;20.00;1.00;;;;;;5128568;28;20718;-59
2023/10/04 13:00:11;;;;;;;1.10;0.28;;;20.00;1.00;;;;;;5126302;28;20753;-59
2023/10/04 13:02:38;;;;;;;0.80;0.25;;;20.00;1.00;;;;;;5124791;28;20523;-59
2023/10/04 13:05:07;;;;;;;0.50;0.20;;;19.90;1.00;;;;;;5108484;28;20708;-59
2023/10/04 13:07:34;;;;;;;0.60;0.20;;;20.00;1.00;;;;;;5106512;28;20504;-59
2023/10/04 13:10:01;;;;;;;0.90;0.30;;;19.90;1.00;;;;;;5106288;28;20423;-61